createdAt,value
2023-02-02T00:01:40.795Z,96.10
2023-02-02T00:04:08.120Z,95.90
2023-02-02T00:06:35.193Z,96.30
2023-02-02T00:09:03.824Z,96.40
2023-02-02T00:11:30.918Z,96.60
2023-02-02T00:13:57.971Z,97.50
2023-02-02T00:16:46.337Z,97.90
2023-02-02T00:19:23.038Z,97.80
2023-02-02T00:21:50.188Z,98.20
2023-02-02T00:24:18.341Z,99.90
2023-02-02T00:26:48.083Z,99.20
2023-02-02T00:29:24.291Z,98.90
2023-02-02T00:31:51.796Z,98.90
2023-02-02T00:34:19.375Z,99.70
2023-02-02T00:36:48.028Z,99.90
2023-02-02T00:39:21.303Z,99.20
2023-02-02T00:41:48.997Z,99.90
2023-02-02T00:44:34.534Z,99.40
2023-02-02T00:47:02.316Z,99.20
2023-02-02T00:49:29.552Z,99.90
2023-02-02T00:51:56.707Z,99.00
2023-02-02T00:54:23.834Z,98.90
2023-02-02T00:56:50.995Z,99.80
2023-02-02T00:59:18.038Z,99.90
2023-02-02T01:01:45.844Z,99.90
2023-02-02T01:04:12.917Z,99.90
2023-02-02T01:06:40.378Z,99.90
2023-02-02T01:09:08.691Z,99.90
2023-02-02T01:11:35.879Z,99.90
2023-02-02T01:14:03.039Z,99.90
2023-02-02T01:16:30.238Z,99.90
2023-02-02T01:18:57.348Z,99.90
2023-02-02T01:21:24.568Z,99.90
2023-02-02T01:23:51.645Z,99.90
2023-02-02T01:26:19.121Z,99.90
2023-02-02T01:28:47.087Z,99.90
2023-02-02T01:31:19.493Z,99.90
2023-02-02T01:33:48.119Z,99.90
2023-02-02T01:36:18.353Z,99.90
2023-02-02T01:38:46.441Z,99.90
2023-02-02T01:41:17.737Z,99.90
2023-02-02T01:43:59.910Z,99.90
2023-02-02T01:46:34.703Z,99.90
2023-02-02T01:49:18.188Z,99.90
2023-02-02T01:51:53.477Z,99.90
2023-02-02T01:54:34.932Z,99.90
2023-02-02T01:57:08.743Z,99.90
2023-02-02T01:59:36.999Z,99.90
2023-02-02T02:02:04.216Z,99.90
2023-02-02T02:04:33.194Z,99.90
2023-02-02T02:07:02.991Z,99.90
2023-02-02T02:09:31.340Z,99.90
2023-02-02T02:11:58.382Z,99.90
2023-02-02T02:14:44.866Z,99.90
2023-02-02T02:17:43.936Z,99.90
2023-02-02T02:21:08.367Z,99.90
2023-02-02T02:24:32.237Z,99.90
2023-02-02T02:27:47.075Z,99.90
2023-02-02T02:31:01.751Z,99.90
2023-02-02T02:33:58.584Z,99.90
2023-02-02T02:37:18.610Z,99.90
2023-02-02T02:40:16.800Z,99.90
2023-02-02T02:42:49.987Z,99.90
2023-02-02T02:45:19.754Z,99.90
2023-02-02T02:47:49.081Z,99.90
2023-02-02T02:50:17.149Z,99.90
2023-02-02T02:52:45.947Z,99.90
2023-02-02T02:55:14.662Z,99.90
2023-02-02T02:58:07.222Z,99.90
2023-02-02T03:00:59.917Z,99.90
2023-02-02T03:04:02.910Z,99.90
2023-02-02T03:06:41.302Z,99.90
2023-02-02T03:09:15.045Z,99.90
2023-02-02T03:11:42.207Z,99.90
2023-02-02T03:14:09.866Z,99.90
2023-02-02T03:16:37.751Z,99.90
2023-02-02T03:19:06.583Z,99.90
2023-02-02T03:21:34.431Z,99.90
2023-02-02T03:24:01.530Z,99.90
2023-02-02T03:26:29.218Z,99.90
2023-02-02T03:28:59.915Z,99.90
2023-02-02T03:31:28.645Z,99.90
2023-02-02T03:33:56.453Z,99.90
2023-02-02T03:36:23.685Z,99.90
2023-02-02T03:38:50.770Z,99.90
2023-02-02T03:41:17.951Z,99.90
2023-02-02T03:43:45.015Z,99.90
2023-02-02T03:46:12.118Z,99.90
2023-02-02T03:48:39.734Z,99.90
2023-02-02T03:51:12.542Z,99.90
2023-02-02T03:53:40.691Z,99.90
2023-02-02T03:56:07.812Z,99.90
2023-02-02T03:58:34.936Z,99.90
2023-02-02T04:01:07.097Z,99.90
2023-02-02T04:03:34.687Z,99.90
2023-02-02T04:06:01.834Z,99.90
2023-02-02T04:08:28.978Z,99.90
2023-02-02T04:10:56.065Z,99.90
2023-02-02T04:13:23.204Z,99.90
2023-02-02T04:15:57.965Z,99.90
2023-02-02T04:18:25.103Z,99.90
2023-02-02T04:20:57.338Z,99.90
2023-02-02T04:23:24.471Z,99.90
2023-02-02T04:25:52.732Z,99.90
2023-02-02T04:28:20.199Z,99.90
2023-02-02T04:30:47.307Z,99.90
2023-02-02T04:33:14.398Z,99.90
2023-02-02T04:35:43.263Z,99.90
2023-02-02T04:38:11.054Z,99.90
2023-02-02T04:40:46.360Z,99.90
2023-02-02T04:43:13.935Z,99.90
2023-02-02T04:45:42.480Z,99.90
2023-02-02T04:48:09.755Z,99.90
2023-02-02T04:50:36.912Z,99.90
2023-02-02T04:53:04.572Z,99.90
2023-02-02T04:55:31.699Z,99.90
2023-02-02T04:57:58.841Z,99.90
2023-02-02T05:00:26.007Z,99.90
2023-02-02T05:02:53.130Z,99.90
2023-02-02T05:05:20.668Z,99.90
2023-02-02T05:07:47.750Z,99.90
2023-02-02T05:10:14.878Z,99.90
2023-02-02T05:12:41.973Z,99.90
2023-02-02T05:15:10.309Z,99.90
2023-02-02T05:17:37.418Z,99.90
2023-02-02T05:20:04.915Z,99.90
2023-02-02T05:22:32.027Z,99.90
2023-02-02T05:24:59.066Z,99.90
2023-02-02T05:27:26.193Z,99.90
2023-02-02T05:29:53.381Z,99.90
2023-02-02T05:32:20.452Z,99.90
2023-02-02T05:34:47.555Z,99.90
2023-02-02T05:37:14.700Z,99.90
2023-02-02T05:39:41.763Z,99.90
2023-02-02T05:42:08.908Z,99.90
2023-02-02T05:44:35.953Z,99.90
2023-02-02T05:47:03.064Z,99.90
2023-02-02T05:49:30.121Z,99.90
2023-02-02T05:51:59.132Z,99.90
2023-02-02T05:54:26.383Z,99.90
2023-02-02T05:56:55.895Z,99.90
2023-02-02T05:59:23.381Z,99.90
2023-02-02T06:01:50.505Z,99.90
2023-02-02T06:04:17.767Z,99.90
2023-02-02T06:06:44.892Z,99.90
2023-02-02T06:09:12.071Z,99.90
2023-02-02T06:11:39.645Z,99.90
2023-02-02T06:14:07.659Z,99.90
2023-02-02T06:16:34.917Z,99.90
2023-02-02T06:19:02.040Z,99.90
2023-02-02T06:21:31.274Z,99.90
2023-02-02T06:23:59.110Z,99.90
2023-02-02T06:26:27.157Z,99.90
2023-02-02T06:28:55.132Z,99.90
2023-02-02T06:31:22.564Z,99.90
2023-02-02T06:33:55.030Z,99.90
2023-02-02T06:36:23.792Z,99.90
2023-02-02T06:38:52.150Z,99.90
2023-02-02T06:41:20.599Z,99.90
2023-02-02T06:43:48.939Z,99.90
2023-02-02T06:46:16.823Z,99.90
2023-02-02T06:48:44.014Z,99.90
2023-02-02T06:51:11.092Z,99.90
2023-02-02T06:53:38.151Z,99.90
2023-02-02T06:56:07.951Z,99.90
2023-02-02T06:58:35.056Z,99.90
2023-02-02T07:01:12.460Z,99.90
2023-02-02T07:03:43.167Z,99.90
2023-02-02T07:06:29.137Z,99.90
2023-02-02T07:09:01.069Z,99.90
2023-02-02T07:11:37.251Z,99.90
2023-02-02T07:14:09.521Z,99.90
2023-02-02T07:16:36.746Z,99.90
2023-02-02T07:19:04.219Z,99.90
2023-02-02T07:21:36.049Z,99.90
2023-02-02T07:24:04.569Z,99.90
2023-02-02T07:26:31.743Z,99.90
2023-02-02T07:28:58.934Z,99.90
2023-02-02T07:31:27.210Z,99.90
2023-02-02T07:33:54.646Z,99.90
2023-02-02T07:36:24.022Z,99.90
2023-02-02T07:38:54.842Z,99.90
2023-02-02T07:41:22.734Z,99.90
2023-02-02T07:43:50.410Z,99.90
2023-02-02T07:46:18.733Z,99.90
2023-02-02T07:48:46.182Z,99.90
2023-02-02T07:51:15.899Z,99.90
2023-02-02T07:53:48.829Z,99.90
2023-02-02T07:56:18.878Z,99.90
2023-02-02T07:58:46.493Z,99.90
2023-02-02T08:01:16.142Z,99.90
2023-02-02T08:03:44.310Z,99.90
2023-02-02T08:06:28.440Z,99.90
2023-02-02T08:08:56.011Z,99.90
2023-02-02T08:11:24.175Z,99.90
2023-02-02T08:13:54.364Z,99.90
2023-02-02T08:16:22.560Z,99.90
2023-02-02T08:18:50.183Z,99.90
2023-02-02T08:21:18.560Z,99.90
2023-02-02T08:23:46.082Z,99.90
2023-02-02T08:26:18.845Z,99.90
2023-02-02T08:28:48.303Z,99.90
2023-02-02T08:31:21.579Z,99.90
2023-02-02T08:33:49.092Z,99.90
2023-02-02T08:36:18.596Z,99.90
2023-02-02T08:38:46.150Z,99.90
2023-02-02T08:41:15.981Z,99.90
2023-02-02T08:43:43.157Z,99.90
2023-02-02T08:46:14.386Z,99.90
2023-02-02T08:48:42.166Z,99.90
2023-02-02T08:51:11.894Z,99.90
2023-02-02T08:53:39.196Z,99.90
2023-02-02T08:56:11.958Z,99.90
2023-02-02T08:58:39.550Z,99.90
2023-02-02T09:01:08.980Z,99.90
2023-02-02T09:03:36.278Z,99.90
2023-02-02T09:06:11.473Z,99.90
2023-02-02T09:08:38.951Z,99.90
2023-02-02T09:11:11.675Z,99.90
2023-02-02T09:13:39.979Z,99.90
2023-02-02T09:16:09.299Z,99.90
2023-02-02T09:18:36.452Z,99.90
2023-02-02T09:21:06.297Z,99.90
2023-02-02T09:23:35.888Z,99.90
2023-02-02T09:26:29.938Z,99.90
2023-02-02T09:28:59.862Z,99.90
2023-02-02T09:31:27.183Z,99.90
2023-02-02T09:33:55.299Z,99.90
2023-02-02T09:36:24.341Z,99.90
2023-02-02T09:38:51.835Z,99.90
2023-02-02T09:41:54.463Z,99.90
2023-02-02T09:44:59.739Z,99.90
2023-02-02T09:48:18.584Z,99.90
2023-02-02T09:51:09.677Z,99.90
2023-02-02T09:53:54.672Z,99.90
2023-02-02T09:56:31.948Z,99.90
2023-02-02T09:59:18.598Z,99.90
2023-02-02T10:01:50.068Z,99.90
2023-02-02T10:04:26.324Z,99.90
2023-02-02T10:06:57.939Z,99.90
2023-02-02T10:09:57.401Z,99.90
2023-02-02T10:13:04.820Z,99.90
2023-02-02T10:16:01.571Z,99.90
2023-02-02T10:18:59.821Z,99.90
2023-02-02T10:22:06.781Z,99.90
2023-02-02T10:24:36.084Z,99.90
2023-02-02T10:27:21.810Z,99.90
2023-02-02T10:30:29.874Z,99.90
2023-02-02T10:33:07.618Z,99.90
2023-02-02T10:35:51.865Z,99.90
2023-02-02T10:38:48.117Z,99.90
2023-02-02T10:41:41.485Z,99.90
2023-02-02T10:44:39.255Z,99.90
2023-02-02T10:47:13.074Z,99.90
2023-02-02T10:49:41.777Z,99.90
2023-02-02T10:52:30.265Z,99.90
2023-02-02T10:55:27.916Z,99.90
2023-02-02T10:58:43.863Z,99.90
2023-02-02T11:01:18.224Z,99.90
2023-02-02T11:03:45.525Z,99.90
2023-02-02T11:06:32.931Z,99.90
2023-02-02T11:09:01.308Z,99.90
2023-02-02T11:11:39.467Z,99.90
2023-02-02T11:14:18.855Z,99.90
2023-02-02T11:16:59.444Z,99.90
2023-02-02T11:19:30.079Z,99.90
2023-02-02T11:21:59.879Z,99.90
2023-02-02T11:24:49.812Z,99.90
2023-02-02T11:27:27.382Z,99.90
2023-02-02T11:29:57.211Z,99.90
2023-02-02T11:32:35.228Z,99.90
2023-02-02T11:35:26.658Z,99.90
2023-02-02T11:38:17.583Z,99.90
2023-02-02T11:40:47.197Z,99.90
2023-02-02T11:43:47.836Z,99.90
2023-02-02T11:46:24.878Z,99.90
2023-02-02T11:49:04.325Z,99.90
2023-02-02T11:51:32.831Z,99.90
2023-02-02T11:54:16.237Z,99.90
2023-02-02T11:56:49.915Z,99.90
2023-02-02T11:59:41.875Z,99.90
2023-02-02T12:02:45.986Z,99.90
2023-02-02T12:05:36.979Z,99.90
2023-02-02T12:08:07.546Z,99.90
2023-02-02T12:10:54.735Z,99.90
2023-02-02T12:13:56.615Z,99.90
2023-02-02T12:16:53.566Z,99.80
2023-02-02T12:20:05.031Z,99.90
2023-02-02T12:23:16.124Z,99.90
2023-02-02T12:26:16.879Z,99.80
2023-02-02T12:29:32.689Z,97.90
2023-02-02T12:32:42.436Z,97.60
2023-02-02T12:35:44.137Z,97.60
2023-02-02T12:38:38.925Z,96.00
2023-02-02T12:41:50.757Z,96.80
2023-02-02T12:44:43.519Z,98.10
2023-02-02T12:47:39.465Z,96.10
2023-02-02T12:50:48.031Z,97.00
2023-02-02T12:53:33.917Z,97.00
2023-02-02T12:56:30.534Z,96.80
2023-02-02T12:59:53.618Z,96.80
2023-02-02T13:02:44.337Z,96.10
2023-02-02T13:05:34.357Z,95.80
2023-02-02T13:08:15.131Z,96.00
2023-02-02T13:10:46.585Z,96.10
2023-02-02T13:13:31.457Z,95.10
2023-02-02T13:16:11.553Z,95.40
2023-02-02T13:18:45.853Z,95.90
2023-02-02T13:21:16.917Z,95.80
2023-02-02T13:23:50.397Z,96.20
2023-02-02T13:26:21.933Z,96.50
2023-02-02T13:29:28.609Z,96.70
2023-02-02T13:32:23.338Z,94.80
2023-02-02T13:35:17.680Z,96.10
2023-02-02T13:38:21.384Z,95.50
2023-02-02T13:40:50.155Z,95.40
2023-02-02T13:43:57.584Z,95.20
2023-02-02T13:46:52.978Z,95.50
2023-02-02T13:49:42.289Z,97.20
2023-02-02T13:52:52.998Z,97.80
2023-02-02T13:55:43.170Z,97.30
2023-02-02T13:59:02.931Z,97.30
2023-02-02T14:01:31.386Z,98.20
2023-02-02T14:04:00.512Z,98.00
2023-02-02T14:06:28.583Z,98.30
2023-02-02T14:09:05.905Z,98.30
2023-02-02T14:11:39.088Z,97.40
2023-02-02T14:14:35.300Z,97.70
2023-02-02T14:17:24.967Z,97.40
2023-02-02T14:19:56.829Z,97.00
2023-02-02T14:22:45.706Z,97.50
2023-02-02T14:28:49.132Z,97.80
2023-02-02T14:31:51.458Z,97.20
2023-02-02T14:34:34.161Z,97.60
2023-02-02T14:37:35.022Z,97.70
2023-02-02T14:40:32.620Z,98.30
2023-02-02T14:46:36.661Z,97.70
2023-02-02T14:49:15.251Z,97.00
2023-02-02T14:52:02.505Z,97.40
2023-02-02T14:54:35.045Z,98.70
2023-02-02T14:57:06.133Z,97.60
2023-02-02T14:59:39.182Z,96.90
2023-02-02T15:02:20.269Z,97.40
2023-02-02T15:04:48.296Z,97.40
2023-02-02T15:07:54.540Z,98.00
2023-02-02T15:11:30.016Z,97.10
2023-02-02T15:14:07.079Z,97.30
2023-02-02T15:16:37.676Z,96.20
2023-02-02T15:19:13.294Z,96.90
2023-02-02T15:21:41.951Z,97.40
2023-02-02T15:24:21.644Z,96.90
2023-02-02T15:26:49.709Z,96.40
2023-02-02T15:29:32.160Z,95.40
2023-02-02T15:32:00.541Z,95.80
2023-02-02T15:34:49.210Z,96.00
2023-02-02T15:37:25.840Z,96.20
2023-02-02T15:39:56.840Z,95.60
2023-02-02T15:42:56.245Z,96.20
2023-02-02T15:45:46.277Z,95.60
2023-02-02T15:48:31.169Z,95.20
2023-02-02T15:51:13.918Z,96.60
2023-02-02T15:53:49.876Z,96.30
2023-02-02T15:56:31.940Z,96.80
2023-02-02T15:59:01.800Z,96.50
2023-02-02T16:01:33.496Z,96.00
2023-02-02T16:04:29.249Z,96.40
2023-02-02T16:06:56.950Z,96.20
2023-02-02T16:09:34.404Z,96.20
2023-02-02T16:12:04.144Z,96.20
2023-02-02T16:14:34.582Z,96.00
2023-02-02T16:17:40.431Z,95.20
2023-02-02T16:20:14.431Z,96.60
2023-02-02T16:22:45.251Z,96.40
2023-02-02T16:25:17.261Z,96.00
2023-02-02T16:27:46.862Z,96.20
2023-02-02T16:30:32.481Z,95.30
2023-02-02T16:32:59.674Z,96.10
2023-02-02T16:35:39.091Z,95.80
2023-02-02T16:38:44.923Z,95.40
2023-02-02T16:41:34.232Z,95.00
2023-02-02T16:44:49.494Z,96.30
2023-02-02T16:47:46.304Z,95.70
2023-02-02T16:50:31.020Z,95.80
2023-02-02T16:53:03.831Z,94.80
2023-02-02T16:55:49.475Z,94.50
2023-02-02T16:58:21.937Z,95.50
2023-02-02T17:01:16.014Z,95.10
2023-02-02T17:03:54.739Z,95.10
2023-02-02T17:06:50.079Z,94.80
2023-02-02T17:09:41.291Z,95.00
2023-02-02T17:12:37.546Z,94.10
2023-02-02T17:15:29.050Z,94.20
2023-02-02T17:17:56.829Z,95.30
2023-02-02T17:20:24.782Z,94.10
2023-02-02T17:23:04.560Z,95.00
2023-02-02T17:25:41.322Z,95.30
2023-02-02T17:28:13.708Z,95.20
2023-02-02T17:30:43.031Z,94.50
2023-02-02T17:33:14.981Z,94.70
2023-02-02T17:35:53.837Z,94.70
2023-02-02T17:38:22.707Z,94.60
2023-02-02T17:40:50.646Z,95.00
2023-02-02T17:43:17.793Z,94.30
2023-02-02T17:45:44.927Z,93.70
2023-02-02T17:48:13.457Z,94.20
2023-02-02T17:50:42.059Z,94.50
2023-02-02T17:53:14.035Z,94.80
2023-02-02T17:55:42.784Z,94.20
2023-02-02T17:58:13.090Z,94.50
2023-02-02T18:00:41.049Z,94.40
2023-02-02T18:03:19.941Z,94.40
2023-02-02T18:05:47.731Z,94.90
2023-02-02T18:08:15.190Z,94.80
2023-02-02T18:10:43.496Z,95.60
2023-02-02T18:13:16.045Z,95.20
2023-02-02T18:15:43.984Z,95.90
2023-02-02T18:18:14.657Z,95.40
2023-02-02T18:20:46.879Z,94.60
2023-02-02T18:23:15.456Z,95.40
2023-02-02T18:25:42.778Z,95.40
2023-02-02T18:28:10.831Z,95.20
2023-02-02T18:30:39.115Z,95.20
2023-02-02T18:33:09.263Z,94.90
2023-02-02T18:35:41.490Z,95.00
2023-02-02T18:38:09.354Z,94.80
2023-02-02T18:40:36.533Z,94.80
2023-02-02T18:43:06.129Z,93.50
2023-02-02T18:45:33.151Z,93.40
2023-02-02T18:48:00.272Z,93.70
2023-02-02T18:50:27.349Z,93.40
2023-02-02T18:52:56.934Z,93.90
2023-02-02T18:55:24.969Z,93.40
2023-02-02T18:57:52.833Z,93.00
2023-02-02T19:00:22.061Z,93.40
2023-02-02T19:02:49.625Z,93.20
2023-02-02T19:05:35.109Z,93.20
2023-02-02T19:08:04.051Z,92.50
2023-02-02T19:10:31.628Z,92.80
2023-02-02T19:13:15.681Z,92.70
2023-02-02T19:15:42.857Z,92.20
2023-02-02T19:18:18.408Z,93.40
2023-02-02T19:20:46.476Z,93.00
2023-02-02T19:23:16.397Z,92.90
2023-02-02T19:25:46.825Z,93.70
2023-02-02T19:28:23.717Z,93.80
2023-02-02T19:30:53.103Z,93.90
2023-02-02T19:33:21.762Z,93.60
2023-02-02T19:35:52.444Z,94.00
2023-02-02T19:38:20.755Z,93.50
2023-02-02T19:40:48.188Z,93.10
2023-02-02T19:43:25.868Z,92.90
2023-02-02T19:45:54.741Z,93.70
2023-02-02T19:48:35.404Z,93.60
2023-02-02T19:51:54.487Z,93.70
2023-02-02T19:54:50.688Z,93.70
2023-02-02T19:57:41.869Z,94.10
2023-02-02T20:00:31.372Z,94.90
2023-02-02T20:03:07.566Z,95.30
2023-02-02T20:05:48.860Z,95.30
2023-02-02T20:08:38.918Z,95.30
2023-02-02T20:11:35.432Z,95.30
2023-02-02T20:14:41.447Z,95.70
2023-02-02T20:17:16.564Z,95.50
2023-02-02T20:19:46.164Z,96.10
2023-02-02T20:22:33.607Z,96.50
2023-02-02T20:25:09.077Z,97.70
2023-02-02T20:27:38.098Z,97.40
2023-02-02T20:30:22.640Z,97.70
2023-02-02T20:32:55.355Z,98.80
2023-02-02T20:35:37.113Z,98.50
2023-02-02T20:38:21.684Z,98.60
2023-02-02T20:40:49.127Z,98.60
2023-02-02T20:43:16.153Z,98.50
2023-02-02T20:45:43.905Z,97.80
2023-02-02T20:48:12.427Z,98.40
2023-02-02T20:50:39.680Z,99.50
2023-02-02T20:53:07.047Z,99.90
2023-02-02T20:55:36.182Z,99.10
2023-02-02T20:58:04.692Z,99.10
2023-02-02T21:00:32.229Z,98.70
2023-02-02T21:02:59.315Z,98.50
2023-02-02T21:05:26.419Z,99.30
2023-02-02T21:07:55.056Z,98.50
2023-02-02T21:10:26.199Z,99.00
2023-02-02T21:12:53.521Z,99.00
2023-02-02T21:15:20.563Z,99.20
2023-02-02T21:17:47.643Z,99.30
2023-02-02T21:20:15.190Z,99.60
2023-02-02T21:22:42.426Z,99.90
2023-02-02T21:25:10.022Z,99.70
2023-02-02T21:27:37.731Z,99.40
2023-02-02T21:30:05.796Z,99.90
2023-02-02T21:32:34.045Z,99.90
2023-02-02T21:35:01.136Z,99.90
2023-02-02T21:37:28.397Z,99.90
2023-02-02T21:39:59.654Z,99.90
2023-02-02T21:42:28.555Z,99.90
2023-02-02T21:45:08.228Z,99.90
2023-02-02T21:47:40.179Z,99.90
2023-02-02T21:50:17.771Z,99.90
2023-02-02T21:52:45.714Z,99.90
2023-02-02T21:55:59.670Z,99.90
2023-02-02T21:58:35.183Z,99.90
2023-02-02T22:01:32.980Z,99.90
2023-02-02T22:04:00.687Z,99.90
2023-02-02T22:06:38.103Z,99.90
2023-02-02T22:09:41.306Z,99.90
2023-02-02T22:12:23.517Z,99.90
2023-02-02T22:14:55.414Z,99.90
2023-02-02T22:17:29.349Z,99.90
2023-02-02T22:20:24.607Z,99.90
2023-02-02T22:22:52.565Z,99.90
2023-02-02T22:25:40.374Z,99.90
2023-02-02T22:28:29.696Z,99.90
2023-02-02T22:30:58.814Z,99.90
2023-02-02T22:33:26.750Z,99.90
2023-02-02T22:35:54.620Z,99.90
2023-02-02T22:38:24.036Z,99.90
2023-02-02T22:40:51.881Z,99.90
2023-02-02T22:43:20.232Z,99.90
2023-02-02T22:45:47.938Z,99.90
2023-02-02T22:48:17.176Z,99.90
2023-02-02T22:50:44.323Z,99.90
2023-02-02T22:53:12.849Z,99.90
2023-02-02T22:55:39.909Z,99.90
2023-02-02T22:58:06.956Z,99.90
2023-02-02T23:00:34.110Z,99.90
2023-02-02T23:03:01.569Z,99.90
2023-02-02T23:05:29.072Z,99.90
2023-02-02T23:07:56.609Z,99.90
2023-02-02T23:10:26.447Z,99.90
2023-02-02T23:12:58.557Z,99.90
2023-02-02T23:15:26.812Z,99.90
2023-02-02T23:17:54.630Z,99.90
2023-02-02T23:20:21.794Z,99.90
2023-02-02T23:22:48.851Z,99.90
2023-02-02T23:25:16.451Z,99.90
2023-02-02T23:27:43.667Z,99.90
2023-02-02T23:30:13.495Z,99.90
2023-02-02T23:32:41.087Z,99.90
2023-02-02T23:35:10.759Z,99.90
2023-02-02T23:37:38.651Z,99.90
2023-02-02T23:40:06.772Z,99.90
2023-02-02T23:42:34.382Z,99.90
2023-02-02T23:45:01.675Z,99.90
2023-02-02T23:47:28.806Z,99.90
2023-02-02T23:49:56.243Z,99.90
2023-02-02T23:52:23.733Z,99.90
2023-02-02T23:54:52.800Z,99.90
2023-02-02T23:57:20.551Z,99.90
2023-02-02T23:59:52.159Z,99.90
